Time;durP1;ratioP1;P1;durP2;ratioP2;P2;SDS_P1;SDS_P2;PMS_P1;PMS_P2;Temp;Humidity;BMP_temperature;BMP_pressure;BME280_temperature;BME280_humidity;BME280_pressure;Samples;Min_cycle;Max_cycle;Signal;HPM_P1;HPM_P2
2023/05/18 00:01:26;;;;;;;;;;;;;;;10.80;52.58;102225.38;4187081;28;20365;-66
2023/05/18 00:03:28;;;;;;;;;;;;;;;10.78;52.21;102219.25;4197512;28;20022;-66
2023/05/18 00:05:32;;;;;;;;;;;;;;;10.77;51.92;102225.66;4197942;28;20019;-66
2023/05/18 00:07:34;;;;;;;;;;;;;;;10.80;51.92;102222.69;4198524;28;20015;-65
2023/05/18 00:09:37;;;;;;;;;;;;;;;10.81;51.32;102222.53;4196600;28;19967;-66
2023/05/18 00:11:40;;;;;;;;;;;;;;;10.84;51.24;102221.38;4197700;28;20007;-66
2023/05/18 00:13:42;;;;;;;;;;;;;;;10.82;51.68;102226.94;4197353;28;20027;-66
2023/05/18 00:15:44;;;;;;;;;;;;;;;10.81;51.40;102225.25;4197198;28;20391;-66
2023/05/18 00:17:47;;;;;;;;;;;;;;;10.80;51.39;102234.34;4195800;28;20027;-66
2023/05/18 00:19:49;;;;;;;;;;;;;;;10.81;51.55;102227.94;4196559;28;20023;-66
2023/05/18 00:21:54;;;;;;;;;;;;;;;10.81;51.77;102227.94;4196893;28;20018;-66
2023/05/18 00:23:57;;;;;;;;;;;;;;;10.78;51.61;102228.22;4196420;28;20027;-66
2023/05/18 00:25:59;;;;;;;;;;;;;;;10.77;51.72;102226.50;4197064;28;20023;-66
2023/05/18 00:28:03;;;;;;;;;;;;;;;10.76;51.84;102224.78;4196479;28;20675;-66
2023/05/18 00:30:05;;;;;;;;;;;;;;;10.75;51.68;102224.94;4171637;28;19944;-66
2023/05/18 00:32:07;;;;;;;;;;;;;;;10.72;51.82;102227.91;4179086;28;20470;-66
2023/05/18 00:34:11;;;;;;;;;;;;;;;10.69;51.79;102230.91;4195411;28;20031;-66
2023/05/18 00:36:13;;;;;;;;;;;;;;;10.65;52.33;102230.34;4197287;28;20043;-65
2023/05/18 00:38:15;;;;;;;;;;;;;;;10.62;52.13;102228.75;4196762;28;20027;-66
2023/05/18 00:40:18;;;;;;;;;;;;;;;10.60;52.37;102235.31;4162180;28;20048;-66
2023/05/18 00:42:20;;;;;;;;;;;;;;;10.57;52.68;102230.19;4196242;28;20023;-66
2023/05/18 00:44:24;;;;;;;;;;;;;;;10.54;52.93;102235.88;4170589;28;20472;-66
2023/05/18 00:46:26;;;;;;;;;;;;;;;10.50;52.73;102232.63;4187183;28;20027;-66
2023/05/18 00:48:28;;;;;;;;;;;;;;;10.48;53.29;102239.16;4171192;28;20080;-66
2023/05/18 00:50:30;;;;;;;;;;;;;;;10.45;52.97;102234.88;4135434;28;19932;-66
2023/05/18 00:52:32;;;;;;;;;;;;;;;10.44;53.39;102236.72;4170572;28;20023;-66
2023/05/18 00:54:35;;;;;;;;;;;;;;;10.42;53.30;102241.41;4179315;28;20043;-66
2023/05/18 00:56:40;;;;;;;;;;;;;;;10.41;53.59;102237.00;4195628;28;20023;-66
2023/05/18 00:58:42;;;;;;;;;;;;;;;10.42;53.70;102252.22;4197033;28;20028;-66
2023/05/18 01:00:45;;;;;;;;;;;;;;;10.40;53.82;102243.38;4177871;28;20027;-66
2023/05/18 01:02:49;;;;;;;;;;;;;;;10.38;53.78;102250.78;4187737;28;19956;-66
2023/05/18 01:04:55;;;;;;;;;;;;;;;10.35;53.95;102252.91;4196725;28;20027;-66
2023/05/18 01:07:05;;;;;;;;;;;;;;;10.32;54.21;102255.84;4196044;28;20043;-66
2023/05/18 01:09:08;;;;;;;;;;;;;;;10.31;54.24;102252.28;4196934;28;20027;-66
2023/05/18 01:11:14;;;;;;;;;;;;;;;10.33;54.33;102258.44;4153479;28;20460;-65
2023/05/18 01:13:18;;;;;;;;;;;;;;;10.35;54.43;102269.13;4196342;28;20485;-66
2023/05/18 01:15:20;;;;;;;;;;;;;;;10.34;54.51;102262.00;4197142;28;20019;-66
2023/05/18 01:17:26;;;;;;;;;;;;;;;10.34;54.34;102259.28;4185539;28;19924;-66
2023/05/18 01:19:44;;;;;;;;;;;;;;;10.29;54.58;102265.06;4186313;28;20028;-66
2023/05/18 01:21:48;;;;;;;;;;;;;;;10.24;54.95;102264.66;4186847;28;20407;-66
2023/05/18 01:23:59;;;;;;;;;;;;;;;10.23;54.96;102263.78;4195333;28;20011;-65
2023/05/18 01:26:11;;;;;;;;;;;;;;;10.22;55.02;102269.31;4194182;28;20032;-65
2023/05/18 01:28:16;;;;;;;;;;;;;;;10.22;55.14;102263.91;4195997;28;20030;-65
2023/05/18 01:30:18;;;;;;;;;;;;;;;10.20;55.48;102266.78;4170299;28;19968;-65
2023/05/18 01:32:20;;;;;;;;;;;;;;;10.20;55.16;102266.78;4169689;28;19936;-66
2023/05/18 01:34:22;;;;;;;;;;;;;;;10.15;55.23;102269.00;4195297;28;20019;-65
2023/05/18 01:36:24;;;;;;;;;;;;;;;10.16;55.47;102267.19;4193525;28;20023;-65
2023/05/18 01:38:29;;;;;;;;;;;;;;;10.16;55.28;102267.19;4196063;28;20051;-65
2023/05/18 01:40:32;;;;;;;;;;;;;;;10.12;55.52;102265.75;4196512;28;20015;-66
2023/05/18 01:42:37;;;;;;;;;;;;;;;10.10;55.70;102272.13;4178004;28;20027;-65
2023/05/18 01:44:39;;;;;;;;;;;;;;;10.13;55.89;102267.47;4196035;28;20018;-65
2023/05/18 01:46:43;;;;;;;;;;;;;;;10.14;55.71;102278.13;4177297;28;20011;-65
2023/05/18 01:48:47;;;;;;;;;;;;;;;10.14;55.36;102270.03;4195064;28;20368;-65
2023/05/18 01:50:49;;;;;;;;;;;;;;;10.13;55.77;102279.09;4194662;28;20027;-64
2023/05/18 01:52:52;;;;;;;;;;;;;;;10.09;56.03;102275.81;4176880;28;20362;-65
2023/05/18 01:54:54;;;;;;;;;;;;;;;10.09;55.80;102283.94;4194921;28;20023;-66
2023/05/18 01:56:56;;;;;;;;;;;;;;;10.11;55.93;102286.50;4170368;28;20024;-65
2023/05/18 01:59:00;;;;;;;;;;;;;;;10.11;56.08;102275.69;4171023;28;20019;-65
2023/05/18 02:01:02;;;;;;;;;;;;;;;10.08;56.03;102281.38;4168743;28;20024;-65
2023/05/18 02:03:04;;;;;;;;;;;;;;;10.08;56.04;102282.22;4194628;28;20031;-65
2023/05/18 02:05:11;;;;;;;;;;;;;;;10.07;56.43;102290.44;4177149;28;20493;-66
2023/05/18 02:07:13;;;;;;;;;;;;;;;10.07;56.32;102287.75;4176528;28;19979;-65
2023/05/18 02:09:17;;;;;;;;;;;;;;;10.08;56.35;102284.06;4175245;28;20470;-65
2023/05/18 02:11:20;;;;;;;;;;;;;;;10.09;56.54;102289.31;4185665;28;20027;-65
2023/05/18 02:13:22;;;;;;;;;;;;;;;10.09;56.66;102281.22;4185605;28;19931;-65
2023/05/18 02:15:25;;;;;;;;;;;;;;;10.09;56.89;102281.22;4177771;28;20031;-65
2023/05/18 02:17:28;;;;;;;;;;;;;;;10.08;56.77;102284.91;4195008;28;20031;-65
2023/05/18 02:19:30;;;;;;;;;;;;;;;10.04;56.90;102269.97;4193778;28;20012;-65
2023/05/18 02:21:34;;;;;;;;;;;;;;;10.10;56.69;102276.66;4177984;28;20027;-65
2023/05/18 02:23:37;;;;;;;;;;;;;;;10.09;56.78;102274.94;4177488;28;20524;-66
2023/05/18 02:25:43;;;;;;;;;;;;;;;10.06;56.84;102280.63;4174122;28;20023;-65
2023/05/18 02:27:45;;;;;;;;;;;;;;;10.04;57.17;102277.22;4184740;28;20035;-65
2023/05/18 02:29:51;;;;;;;;;;;;;;;10.02;57.19;102280.03;4195280;28;20015;-65
2023/05/18 02:31:54;;;;;;;;;;;;;;;10.01;57.12;102283.72;4195118;28;20036;-65
2023/05/18 02:33:56;;;;;;;;;;;;;;;10.01;57.43;102281.03;4185606;28;19925;-65
2023/05/18 02:35:57;;;;;;;;;;;;;;;10.03;57.22;102289.00;4195186;28;20364;-65
2023/05/18 02:37:59;;;;;;;;;;;;;;;10.03;57.30;102278.19;4195671;28;20055;-65
2023/05/18 02:40:02;;;;;;;;;;;;;;;10.03;57.47;102280.91;4177539;28;20024;-65
2023/05/18 02:42:05;;;;;;;;;;;;;;;10.04;57.41;102283.47;4184170;28;20027;-65
2023/05/18 02:44:07;;;;;;;;;;;;;;;10.04;57.53;102285.31;4177045;28;20024;-65
2023/05/18 02:46:09;;;;;;;;;;;;;;;10.04;57.22;102282.63;4195488;28;20015;-66
2023/05/18 02:48:13;;;;;;;;;;;;;;;10.03;57.18;102280.91;4183609;28;20075;-65
2023/05/18 02:50:16;;;;;;;;;;;;;;;9.98;57.31;102289.41;4185193;28;20047;-65
2023/05/18 02:52:20;;;;;;;;;;;;;;;9.95;57.40;102286.13;4184599;28;20458;-65
2023/05/18 02:54:22;;;;;;;;;;;;;;;9.92;57.58;102284.53;4184604;28;20474;-66
2023/05/18 02:56:24;;;;;;;;;;;;;;;9.89;57.60;102290.19;4177323;28;20658;-66
2023/05/18 02:58:42;;;;;;;;;;;;;;;9.85;58.01;102284.22;4183613;28;20051;-65
2023/05/18 03:00:53;;;;;;;;;;;;;;;9.83;57.87;102290.78;4185030;28;20016;-65
2023/05/18 03:02:56;;;;;;;;;;;;;;;9.78;58.27;102290.28;4194231;28;20016;-66
2023/05/18 03:05:02;;;;;;;;;;;;;;;9.76;58.20;102286.88;4175790;28;20059;-65
2023/05/18 03:07:06;;;;;;;;;;;;;;;9.74;58.27;102287.84;4194792;28;20034;-65
2023/05/18 03:09:08;;;;;;;;;;;;;;;9.71;58.83;102289.97;4185324;28;20017;-65
2023/05/18 03:11:15;;;;;;;;;;;;;;;9.71;58.61;102293.53;4185304;28;20027;-65
2023/05/18 03:13:18;;;;;;;;;;;;;;;9.69;58.82;102295.50;4194483;28;20019;-65
2023/05/18 03:15:20;;;;;;;;;;;;;;;9.67;58.79;102302.88;4176452;28;19931;-65
2023/05/18 03:17:22;;;;;;;;;;;;;;;9.66;59.00;102303.03;4193929;28;20365;-65
2023/05/18 03:19:25;;;;;;;;;;;;;;;9.65;58.99;102296.75;4176796;28;20441;-66
2023/05/18 03:21:34;;;;;;;;;;;;;;;9.62;59.15;102299.72;4195003;28;20036;-65
2023/05/18 03:23:39;;;;;;;;;;;;;;;9.61;59.19;102299.84;4168248;28;20025;-66
2023/05/18 03:25:42;;;;;;;;;;;;;;;9.60;59.41;102298.16;4175362;28;20020;-65
2023/05/18 03:27:44;;;;;;;;;;;;;;;9.56;59.51;102294.84;4193836;28;20016;-65
2023/05/18 03:29:47;;;;;;;;;;;;;;;9.52;59.49;102293.41;4176951;28;20036;-65
2023/05/18 03:31:48;;;;;;;;;;;;;;;9.50;59.71;102295.41;4194568;28;20367;-65
2023/05/18 03:33:51;;;;;;;;;;;;;;;9.50;59.79;102293.56;4173638;28;20020;-65
2023/05/18 03:35:55;;;;;;;;;;;;;;;9.48;59.68;102298.22;4194791;28;20015;-67
2023/05/18 03:37:58;;;;;;;;;;;;;;;9.48;59.75;102303.63;4184827;28;20027;-67
2023/05/18 03:40:09;;;;;;;;;;;;;;;9.47;59.94;102303.75;4176772;28;20028;-67
2023/05/18 03:42:11;;;;;;;;;;;;;;;9.44;59.88;102304.88;4183786;28;20446;-66
2023/05/18 03:44:14;;;;;;;;;;;;;;;9.42;60.28;102298.75;4176645;28;20389;-66
2023/05/18 03:46:16;;;;;;;;;;;;;;;9.41;60.06;102301.59;4194168;28;20020;-66
2023/05/18 03:48:18;;;;;;;;;;;;;;;9.40;60.25;102302.56;4151006;28;20012;-66
2023/05/18 03:50:20;;;;;;;;;;;;;;;9.40;60.57;102305.25;4193160;28;20025;-66
2023/05/18 03:52:22;;;;;;;;;;;;;;;9.43;60.25;102313.09;4192913;28;20055;-66
2023/05/18 03:54:26;;;;;;;;;;;;;;;9.44;60.33;102312.09;4183836;28;20023;-66
2023/05/18 03:56:30;;;;;;;;;;;;;;;9.46;60.30;102315.53;4183162;28;19928;-67
2023/05/18 03:58:31;;;;;;;;;;;;;;;9.49;60.48;102315.25;4175382;28;20028;-67
2023/05/18 04:00:34;;;;;;;;;;;;;;;9.51;60.49;102318.66;4176254;28;20521;-67
2023/05/18 04:02:36;;;;;;;;;;;;;;;9.51;60.41;102321.38;4194397;28;20040;-67
2023/05/18 04:04:40;;;;;;;;;;;;;;;9.51;60.63;102329.47;4175997;28;20023;-66
2023/05/18 04:06:42;;;;;;;;;;;;;;;9.48;60.48;102327.03;4182964;28;20845;-66
2023/05/18 04:08:45;;;;;;;;;;;;;;;9.44;60.82;102329.13;4183282;28;20016;-67
2023/05/18 04:10:48;;;;;;;;;;;;;;;9.43;61.07;102332.81;4183766;28;20031;-66
2023/05/18 04:12:50;;;;;;;;;;;;;;;9.44;61.15;102337.22;4182889;28;20023;-66
2023/05/18 04:14:53;;;;;;;;;;;;;;;9.48;61.04;102335.13;4184785;28;20439;-66
2023/05/18 04:16:55;;;;;;;;;;;;;;;9.51;61.15;102333.03;4185610;28;20482;-66
2023/05/18 04:18:59;;;;;;;;;;;;;;;9.54;61.18;102335.47;4183992;28;20565;-66
2023/05/18 04:21:01;;;;;;;;;;;;;;;9.58;60.97;102341.44;4184310;28;20011;-66
2023/05/18 04:23:04;;;;;;;;;;;;;;;9.61;60.72;102341.19;4193583;28;20031;-67
2023/05/18 04:25:06;;;;;;;;;;;;;;;9.62;61.09;102344.72;4193837;28;20023;-66
2023/05/18 04:27:10;;;;;;;;;;;;;;;9.61;61.40;102341.19;4193050;28;20023;-66
2023/05/18 04:29:13;;;;;;;;;;;;;;;9.62;61.17;102342.03;4193990;28;20024;-67
2023/05/18 04:31:16;;;;;;;;;;;;;;;9.61;61.17;102341.19;4168125;28;20021;-66
2023/05/18 04:33:19;;;;;;;;;;;;;;;9.63;61.34;102344.59;4167586;28;20012;-67
2023/05/18 04:35:21;;;;;;;;;;;;;;;9.65;61.02;102342.63;4167763;28;20023;-66
2023/05/18 04:37:23;;;;;;;;;;;;;;;9.70;61.04;102345.78;4167761;28;20483;-67
2023/05/18 04:39:26;;;;;;;;;;;;;;;9.73;61.14;102347.34;4176082;28;20015;-67
2023/05/18 04:41:28;;;;;;;;;;;;;;;9.75;60.73;102342.69;4175301;28;20019;-67
2023/05/18 04:43:32;;;;;;;;;;;;;;;9.79;60.74;102346.81;4171028;28;20028;-67
2023/05/18 04:45:35;;;;;;;;;;;;;;;9.83;61.11;102344.75;4168911;28;20040;-67
2023/05/18 04:47:37;;;;;;;;;;;;;;;9.85;61.20;102350.84;4196565;28;20115;-67
2023/05/18 04:49:39;;;;;;;;;;;;;;;9.87;60.83;102351.56;4186932;28;20016;-67
2023/05/18 04:51:42;;;;;;;;;;;;;;;9.88;60.90;102355.97;4187085;28;20020;-66
2023/05/18 04:53:44;;;;;;;;;;;;;;;9.90;60.56;102352.13;4196378;28;20028;-66
2023/05/18 04:55:48;;;;;;;;;;;;;;;9.95;60.70;102359.00;4186492;28;20035;-66
2023/05/18 04:57:52;;;;;;;;;;;;;;;10.00;60.47;102351.34;4170392;28;19929;-67
2023/05/18 04:59:57;;;;;;;;;;;;;;;10.00;60.70;102364.84;4186548;28;20451;-67
2023/05/18 05:01:59;;;;;;;;;;;;;;;10.02;60.45;102352.94;4187264;28;20024;-67
2023/05/18 05:04:01;;;;;;;;;;;;;;;10.01;60.68;102351.22;4186220;28;20034;-66
2023/05/18 05:06:03;;;;;;;;;;;;;;;10.04;60.87;102348.25;4187152;28;20039;-67
2023/05/18 05:08:06;;;;;;;;;;;;;;;10.07;60.89;102349.84;4176972;28;20016;-66
2023/05/18 05:10:08;;;;;;;;;;;;;;;10.13;60.51;102356.56;4178979;28;20039;-66
2023/05/18 05:12:10;;;;;;;;;;;;;;;10.17;60.46;102358.84;4178566;28;20052;-66
2023/05/18 05:14:13;;;;;;;;;;;;;;;10.20;59.99;102360.41;4186220;28;20016;-67
2023/05/18 05:16:16;;;;;;;;;;;;;;;10.22;60.18;102355.72;4179342;28;19991;-66
2023/05/18 05:18:18;;;;;;;;;;;;;;;10.25;60.07;102360.84;4179860;28;20031;-67
2023/05/18 05:20:20;;;;;;;;;;;;;;;10.27;59.74;102364.28;4180114;28;20023;-66
2023/05/18 05:22:22;;;;;;;;;;;;;;;10.29;59.78;102365.00;4169607;28;20020;-67
2023/05/18 05:24:25;;;;;;;;;;;;;;;10.33;60.19;102360.19;4186256;28;20032;-66
2023/05/18 05:26:27;;;;;;;;;;;;;;;10.35;59.89;102369.88;4186915;28;20040;-66
2023/05/18 05:28:29;;;;;;;;;;;;;;;10.40;59.82;102355.97;4170962;28;20494;-66
2023/05/18 05:30:33;;;;;;;;;;;;;;;10.46;59.40;102361.69;4177978;28;20011;-66
2023/05/18 05:32:40;;;;;;;;;;;;;;;10.53;59.10;102364.72;4186166;28;20467;-67
2023/05/18 05:34:46;;;;;;;;;;;;;;;10.59;59.01;102369.53;4186378;28;20011;-67
2023/05/18 05:36:49;;;;;;;;;;;;;;;10.64;59.12;102369.13;4179963;28;20016;-67
2023/05/18 05:38:52;;;;;;;;;;;;;;;10.67;58.87;102374.25;4174782;28;20387;-66
2023/05/18 05:40:54;;;;;;;;;;;;;;;10.70;58.84;102376.69;4186392;28;20019;-66
2023/05/18 05:42:56;;;;;;;;;;;;;;;10.73;58.67;102375.56;4177043;28;20019;-66
2023/05/18 05:44:59;;;;;;;;;;;;;;;10.75;58.60;102377.16;4176941;28;20051;-66
2023/05/18 05:47:02;;;;;;;;;;;;;;;10.77;58.66;102375.16;4185132;28;20022;-66
2023/05/18 05:49:08;;;;;;;;;;;;;;;10.84;58.62;102382.72;4184236;28;20020;-66
2023/05/18 05:51:12;;;;;;;;;;;;;;;10.89;57.80;102385.84;4176605;28;20373;-66
2023/05/18 05:53:16;;;;;;;;;;;;;;;10.92;58.00;102386.41;4177428;28;20008;-67
2023/05/18 05:55:19;;;;;;;;;;;;;;;10.95;57.88;102383.44;4184191;28;20059;-66
2023/05/18 05:57:21;;;;;;;;;;;;;;;11.04;57.37;102389.88;4183476;28;20012;-66
2023/05/18 05:59:23;;;;;;;;;;;;;;;11.09;57.60;102390.28;4176928;28;20447;-66
2023/05/18 06:01:26;;;;;;;;;;;;;;;11.09;57.67;102384.88;4169241;28;20482;-67
2023/05/18 06:03:30;;;;;;;;;;;;;;;11.09;57.52;102386.75;4169709;28;20047;-67
2023/05/18 06:05:36;;;;;;;;;;;;;;;11.08;57.36;102380.50;4185573;28;20047;-66
2023/05/18 06:07:42;;;;;;;;;;;;;;;11.09;57.25;102382.19;4186101;28;20024;-67
2023/05/18 06:09:45;;;;;;;;;;;;;;;11.12;57.29;102383.75;4178541;28;20031;-66
2023/05/18 06:11:48;;;;;;;;;;;;;;;11.16;57.35;102383.34;4169272;28;20023;-66
2023/05/18 06:13:51;;;;;;;;;;;;;;;11.21;57.05;102388.31;4169308;28;20059;-66
2023/05/18 06:15:53;;;;;;;;;;;;;;;11.25;57.03;102387.03;4185454;28;20024;-66
2023/05/18 06:17:56;;;;;;;;;;;;;;;11.29;57.09;102385.75;4176101;28;20028;-67
2023/05/18 06:19:58;;;;;;;;;;;;;;;11.34;56.82;102385.34;4168817;28;20028;-67
2023/05/18 06:22:02;;;;;;;;;;;;;;;11.36;56.38;102383.34;4176172;28;20387;-67
2023/05/18 06:24:10;;;;;;;;;;;;;;;11.39;56.25;102393.88;4168554;28;20035;-67
2023/05/18 06:26:27;;;;;;;;;;;;;;;11.45;56.28;102385.19;4191441;28;20015;-67
2023/05/18 06:28:48;;;;;;;;;;;;;;;11.51;55.79;102384.63;4185134;28;20458;-66
2023/05/18 06:31:04;;;;;;;;;;;;;;;11.56;55.63;102383.34;4186045;28;20024;-66
2023/05/18 06:33:25;;;;;;;;;;;;;;;11.53;55.57;102382.63;4175803;28;20027;-65
2023/05/18 06:35:27;;;;;;;;;;;;;;;11.53;55.83;102379.06;4177513;28;19933;-66
2023/05/18 06:37:32;;;;;;;;;;;;;;;11.54;56.11;102389.75;4185291;28;20047;-67
2023/05/18 06:39:36;;;;;;;;;;;;;;;11.55;55.76;102385.19;4184816;28;20050;-66
2023/05/18 06:41:38;;;;;;;;;;;;;;;11.57;55.82;102390.44;4178672;28;20474;-67
2023/05/18 06:43:41;;;;;;;;;;;;;;;11.61;55.46;102392.72;4152625;28;20012;-65
2023/05/18 06:45:54;;;;;;;;;;;;;;;11.63;55.48;102388.03;4176423;28;20052;-66
2023/05/18 06:48:09;;;;;;;;;;;;;;;11.65;55.03;102391.44;4185520;28;20031;-66
2023/05/18 06:50:11;;;;;;;;;;;;;;;11.68;54.97;102390.31;4185635;28;20355;-66
2023/05/18 06:52:13;;;;;;;;;;;;;;;11.67;54.89;102391.31;4185003;28;20023;-66
2023/05/18 06:54:19;;;;;;;;;;;;;;;11.68;55.05;102388.47;4161570;28;20020;-66
2023/05/18 06:56:23;;;;;;;;;;;;;;;11.70;54.99;102389.16;4185632;28;20027;-65
2023/05/18 06:58:27;;;;;;;;;;;;;;;11.78;54.42;102388.44;4169686;28;20822;-65
2023/05/18 07:00:30;;;;;;;;;;;;;;;11.84;53.87;102385.16;4167689;28;20030;-64
2023/05/18 07:02:32;;;;;;;;;;;;;;;11.89;53.74;102388.28;4168975;28;19932;-67
2023/05/18 07:04:35;;;;;;;;;;;;;;;11.95;53.74;102388.75;4167794;28;20385;-66
2023/05/18 07:06:37;;;;;;;;;;;;;;;11.99;53.63;102392.84;4170351;28;20395;-66
2023/05/18 07:08:39;;;;;;;;;;;;;;;12.01;53.80;102393.59;4168300;28;20056;-65
2023/05/18 07:10:42;;;;;;;;;;;;;;;11.99;53.40;102393.72;4170556;28;20397;-65
2023/05/18 07:12:45;;;;;;;;;;;;;;;11.98;53.46;102391.16;4168873;28;20272;-65
2023/05/18 07:14:47;;;;;;;;;;;;;;;12.03;53.86;102394.28;4169680;28;20043;-66
2023/05/18 07:16:51;;;;;;;;;;;;;;;12.07;53.59;102393.00;4171317;28;20012;-64
2023/05/18 07:18:54;;;;;;;;;;;;;;;12.08;52.68;102383.84;4170890;28;20008;-65
2023/05/18 07:20:56;;;;;;;;;;;;;;;12.05;52.78;102385.03;4170602;28;20021;-65
2023/05/18 07:22:58;;;;;;;;;;;;;;;12.08;53.04;102384.72;4168951;28;19933;-66
2023/05/18 07:25:00;;;;;;;;;;;;;;;12.16;52.90;102391.25;4170622;28;20455;-66
2023/05/18 07:27:04;;;;;;;;;;;;;;;12.23;52.08;102382.38;4169573;28;20019;-66
2023/05/18 07:29:06;;;;;;;;;;;;;;;12.24;51.96;102370.56;4169741;28;20023;-68
2023/05/18 07:31:08;;;;;;;;;;;;;;;12.32;50.83;102374.38;4168580;28;20032;-65
2023/05/18 07:33:10;;;;;;;;;;;;;;;12.38;50.80;102381.91;4169464;28;20016;-65
2023/05/18 07:35:12;;;;;;;;;;;;;;;12.44;50.94;102382.19;4169786;28;20044;-65
2023/05/18 07:37:14;;;;;;;;;;;;;;;12.47;51.32;102382.88;4168319;28;20023;-65
2023/05/18 07:39:18;;;;;;;;;;;;;;;12.47;51.29;102372.03;4168878;28;20533;-65
2023/05/18 07:41:21;;;;;;;;;;;;;;;12.51;51.75;102378.88;4153104;28;20055;-65
2023/05/18 07:43:25;;;;;;;;;;;;;;;12.55;51.67;102380.25;4168408;28;19925;-65
2023/05/18 07:45:27;;;;;;;;;;;;;;;12.56;51.31;102381.97;4152161;28;20599;-68
2023/05/18 07:47:28;;;;;;;;;;;;;;;12.59;51.65;102376.25;4169107;28;20024;-67
2023/05/18 07:49:31;;;;;;;;;;;;;;;12.63;51.63;102377.66;4170004;28;20040;-68
2023/05/18 07:51:35;;;;;;;;;;;;;;;12.70;50.97;102376.06;4169835;28;20024;-66
2023/05/18 07:53:39;;;;;;;;;;;;;;;12.74;50.54;102376.59;4168508;28;20012;-67
2023/05/18 07:55:41;;;;;;;;;;;;;;;12.77;50.13;102377.16;4169137;28;19933;-66
2023/05/18 07:57:45;;;;;;;;;;;;;;;12.79;49.62;102380.56;4167949;28;20734;-66
2023/05/18 07:59:53;;;;;;;;;;;;;;;12.75;48.70;102381.88;4170504;28;20496;-66
2023/05/18 08:01:58;;;;;;;;;;;;;;;12.68;49.02;102382.63;4168990;28;19972;-66
2023/05/18 08:04:01;;;;;;;;;;;;;;;12.68;50.09;102386.19;4157920;28;19959;-65
2023/05/18 08:06:08;;;;;;;;;;;;;;;12.74;50.35;102390.16;4167750;28;20075;-67
2023/05/18 08:08:14;;;;;;;;;;;;;;;12.79;50.79;102393.28;4176902;28;20503;-65
2023/05/18 08:10:16;;;;;;;;;;;;;;;12.85;50.00;102384.50;4175953;28;19935;-66
2023/05/18 08:12:18;;;;;;;;;;;;;;;12.89;49.66;102388.63;4175082;28;20020;-65
2023/05/18 08:14:23;;;;;;;;;;;;;;;12.94;49.74;102391.72;4176435;28;19925;-67
2023/05/18 08:16:27;;;;;;;;;;;;;;;13.00;49.47;102386.72;4177641;28;20601;-66
2023/05/18 08:18:29;;;;;;;;;;;;;;;13.04;49.54;102389.00;4180043;28;20011;-66
2023/05/18 08:20:31;;;;;;;;;;;;;;;13.09;48.69;102388.53;4177746;28;20475;-65
2023/05/18 08:22:33;;;;;;;;;;;;;;;13.12;49.37;102391.78;4178897;28;20031;-66
2023/05/18 08:24:35;;;;;;;;;;;;;;;13.20;48.96;102390.13;4179622;28;20406;-66
2023/05/18 08:26:37;;;;;;;;;;;;;;;13.26;48.34;102389.53;4180145;28;20023;-66
2023/05/18 08:28:39;;;;;;;;;;;;;;;13.29;48.51;102392.81;4178926;28;20020;-66
2023/05/18 08:30:41;;;;;;;;;;;;;;;13.31;47.88;102389.94;4186229;28;20031;-66
2023/05/18 08:32:45;;;;;;;;;;;;;;;13.31;48.04;102398.06;4175095;28;20031;-65
2023/05/18 08:34:50;;;;;;;;;;;;;;;13.31;48.06;102389.94;4175950;28;20399;-67
2023/05/18 08:36:52;;;;;;;;;;;;;;;13.32;48.65;102394.34;4184326;28;20088;-66
2023/05/18 08:38:54;;;;;;;;;;;;;;;13.32;48.19;102389.78;4169423;28;20015;-64
2023/05/18 08:40:59;;;;;;;;;;;;;;;13.30;48.24;102380.91;4185134;28;19928;-65
2023/05/18 08:43:02;;;;;;;;;;;;;;;13.36;48.01;102384.91;4177924;28;20012;-64
2023/05/18 08:45:06;;;;;;;;;;;;;;;13.36;47.59;102386.78;4178004;28;19930;-66
2023/05/18 08:47:09;;;;;;;;;;;;;;;13.35;47.63;102383.19;4177571;28;20011;-66
2023/05/18 08:49:12;;;;;;;;;;;;;;;13.36;47.94;102384.06;4178988;28;20008;-66
2023/05/18 08:51:15;;;;;;;;;;;;;;;13.37;47.64;102385.75;4178324;28;20446;-65
2023/05/18 08:53:17;;;;;;;;;;;;;;;13.37;47.09;102380.34;4178618;28;20012;-64
2023/05/18 08:55:19;;;;;;;;;;;;;;;13.37;47.21;102385.75;4179821;28;20521;-65
2023/05/18 08:57:22;;;;;;;;;;;;;;;13.35;47.04;102388.63;4169752;28;20024;-63
2023/05/18 08:59:24;;;;;;;;;;;;;;;13.36;48.00;102384.06;4167449;28;20020;-64
2023/05/18 09:01:27;;;;;;;;;;;;;;;13.33;47.83;102372.50;4174776;28;20012;-65
2023/05/18 09:03:30;;;;;;;;;;;;;;;13.42;47.73;102392.44;4179285;28;20024;-64
2023/05/18 09:05:33;;;;;;;;;;;;;;;13.45;48.04;102386.69;4193403;28;19968;-65
2023/05/18 09:07:35;;;;;;;;;;;;;;;13.46;47.40;102390.25;4192773;28;20050;-65
2023/05/18 09:09:37;;;;;;;;;;;;;;;13.47;47.63;102386.53;4193615;28;20016;-66
2023/05/18 09:11:39;;;;;;;;;;;;;;;13.48;47.84;102388.25;4194018;28;20063;-66
2023/05/18 09:13:41;;;;;;;;;;;;;;;13.50;47.88;102389.78;4191963;28;20018;-66
2023/05/18 09:15:43;;;;;;;;;;;;;;;13.51;47.49;102383.38;4193097;28;20489;-66
2023/05/18 09:17:45;;;;;;;;;;;;;;;13.56;47.23;102380.19;4193571;28;20015;-65
2023/05/18 09:19:47;;;;;;;;;;;;;;;13.59;45.90;102381.72;4196358;28;20028;-66
2023/05/18 09:21:50;;;;;;;;;;;;;;;13.59;46.94;102381.72;4196220;28;20019;-66
2023/05/18 09:23:52;;;;;;;;;;;;;;;13.60;46.57;102384.28;4194792;28;20027;-65
2023/05/18 09:25:54;;;;;;;;;;;;;;;13.61;47.25;102377.00;4194885;28;19955;-66
2023/05/18 09:27:56;;;;;;;;;;;;;;;13.61;47.60;102375.13;4194407;28;20027;-65
2023/05/18 09:29:58;;;;;;;;;;;;;;;13.61;47.01;102377.84;4196240;28;20011;-66
2023/05/18 09:32:02;;;;;;;;;;;;;;;13.64;46.87;102376.69;4195282;28;20007;-66
2023/05/18 09:34:05;;;;;;;;;;;;;;;13.66;47.22;102374.66;4186680;28;19983;-66
2023/05/18 09:36:07;;;;;;;;;;;;;;;13.66;47.69;102369.22;4193239;28;20004;-66
2023/05/18 09:38:11;;;;;;;;;;;;;;;13.68;47.34;102369.91;4195139;28;20032;-66
2023/05/18 09:40:13;;;;;;;;;;;;;;;13.70;47.42;102370.63;4195622;28;20443;-66
2023/05/18 09:42:15;;;;;;;;;;;;;;;13.73;47.21;102366.72;4193692;28;20011;-66
2023/05/18 09:44:17;;;;;;;;;;;;;;;13.75;47.48;102362.84;4196548;28;20102;-66
2023/05/18 09:46:19;;;;;;;;;;;;;;;13.75;47.62;102371.00;4195524;28;19956;-66
2023/05/18 09:48:21;;;;;;;;;;;;;;;13.77;46.48;102371.69;4195950;28;20003;-66
2023/05/18 09:50:24;;;;;;;;;;;;;;;13.78;46.99;102367.13;4195790;28;20457;-66
2023/05/18 09:52:26;;;;;;;;;;;;;;;13.83;47.24;102364.78;4195278;28;20050;-66
2023/05/18 09:54:29;;;;;;;;;;;;;;;13.89;47.12;102369.56;4194848;28;20015;-65
2023/05/18 09:56:31;;;;;;;;;;;;;;;13.91;47.28;102372.13;4195334;28;20023;-65
2023/05/18 09:58:33;;;;;;;;;;;;;;;13.96;47.04;102367.91;4194544;28;20462;-66
2023/05/18 10:00:41;;;;;;;;;;;;;;;14.02;46.19;102363.72;4195882;28;20027;-66
2023/05/18 10:02:47;;;;;;;;;;;;;;;14.08;46.80;102363.06;4195221;28;20066;-65
2023/05/18 10:04:49;;;;;;;;;;;;;;;14.10;46.41;102362.91;4195466;28;20023;-65
2023/05/18 10:06:51;;;;;;;;;;;;;;;14.16;46.39;102354.13;4195521;28;19928;-66
2023/05/18 10:08:53;;;;;;;;;;;;;;;14.20;46.12;102352.75;4195657;28;20031;-65
2023/05/18 10:10:58;;;;;;;;;;;;;;;14.23;45.88;102356.03;4195292;28;20016;-65
2023/05/18 10:13:00;;;;;;;;;;;;;;;14.22;45.53;102356.19;4168973;28;20025;-65
2023/05/18 10:15:02;;;;;;;;;;;;;;;14.21;45.06;102352.59;4176817;28;19959;-65
2023/05/18 10:17:05;;;;;;;;;;;;;;;14.18;45.24;102349.38;4194613;28;20022;-65
2023/05/18 10:19:07;;;;;;;;;;;;;;;14.16;45.22;102357.69;4193823;28;20442;-67
2023/05/18 10:21:11;;;;;;;;;;;;;;;14.16;45.80;102346.81;4185643;28;20036;-66
2023/05/18 10:23:13;;;;;;;;;;;;;;;14.16;45.22;102349.53;4194648;28;20016;-66
2023/05/18 10:25:15;;;;;;;;;;;;;;;14.18;45.55;102339.34;4191573;28;20022;-66
2023/05/18 10:27:20;;;;;;;;;;;;;;;14.23;45.49;102339.72;4191949;28;19967;-65
2023/05/18 10:29:22;;;;;;;;;;;;;;;14.24;45.72;102333.25;4193638;28;20015;-65
2023/05/18 10:31:24;;;;;;;;;;;;;;;14.28;45.50;102328.38;4194337;28;20035;-65
2023/05/18 10:33:26;;;;;;;;;;;;;;;14.30;45.41;102333.63;4190825;28;20020;-64
2023/05/18 10:35:28;;;;;;;;;;;;;;;14.30;45.53;102331.75;4191979;28;20379;-66